sensor_id;sensor_type;location;lat;lon;timestamp;P1;durP1;ratioP1;P2;durP2;ratioP2
2396;SDS011;1209;48.410;9.054;2024-01-06T00:01:14;10.60;;;6.70;;
2396;SDS011;1209;48.410;9.054;2024-01-06T00:03:40;9.67;;;5.10;;
2396;SDS011;1209;48.410;9.054;2024-01-06T00:06:05;6.93;;;5.43;;
2396;SDS011;1209;48.410;9.054;2024-01-06T00:08:31;10.17;;;6.30;;
2396;SDS011;1209;48.410;9.054;2024-01-06T00:10:56;8.90;;;5.47;;
2396;SDS011;1209;48.410;9.054;2024-01-06T00:13:21;8.80;;;5.70;;
2396;SDS011;1209;48.410;9.054;2024-01-06T00:15:46;7.10;;;5.67;;
2396;SDS011;1209;48.410;9.054;2024-01-06T00:18:12;8.37;;;5.43;;
2396;SDS011;1209;48.410;9.054;2024-01-06T00:20:37;8.07;;;5.93;;
2396;SDS011;1209;48.410;9.054;2024-01-06T00:23:03;9.07;;;6.50;;
2396;SDS011;1209;48.410;9.054;2024-01-06T00:25:28;9.20;;;6.70;;
2396;SDS011;1209;48.410;9.054;2024-01-06T00:27:53;8.10;;;5.43;;
2396;SDS011;1209;48.410;9.054;2024-01-06T00:30:19;10.90;;;6.47;;
2396;SDS011;1209;48.410;9.054;2024-01-06T00:32:44;11.50;;;5.87;;
2396;SDS011;1209;48.410;9.054;2024-01-06T00:35:09;6.37;;;5.40;;
2396;SDS011;1209;48.410;9.054;2024-01-06T00:37:34;9.10;;;6.47;;
2396;SDS011;1209;48.410;9.054;2024-01-06T00:40:00;6.60;;;4.90;;
2396;SDS011;1209;48.410;9.054;2024-01-06T00:42:25;8.40;;;5.80;;
2396;SDS011;1209;48.410;9.054;2024-01-06T00:44:50;7.45;;;4.88;;
2396;SDS011;1209;48.410;9.054;2024-01-06T00:47:16;10.30;;;7.10;;
2396;SDS011;1209;48.410;9.054;2024-01-06T00:49:41;9.47;;;4.90;;
2396;SDS011;1209;48.410;9.054;2024-01-06T00:52:06;9.53;;;5.70;;
2396;SDS011;1209;48.410;9.054;2024-01-06T00:54:31;8.50;;;5.33;;
2396;SDS011;1209;48.410;9.054;2024-01-06T00:56:57;5.93;;;5.30;;
2396;SDS011;1209;48.410;9.054;2024-01-06T00:59:22;6.17;;;5.23;;
2396;SDS011;1209;48.410;9.054;2024-01-06T01:01:47;7.23;;;5.30;;
2396;SDS011;1209;48.410;9.054;2024-01-06T01:04:13;6.50;;;4.63;;
2396;SDS011;1209;48.410;9.054;2024-01-06T01:06:38;7.53;;;5.37;;
2396;SDS011;1209;48.410;9.054;2024-01-06T01:09:03;5.37;;;4.87;;
2396;SDS011;1209;48.410;9.054;2024-01-06T01:11:29;9.50;;;5.53;;
2396;SDS011;1209;48.410;9.054;2024-01-06T01:13:55;5.70;;;4.53;;
2396;SDS011;1209;48.410;9.054;2024-01-06T01:16:20;7.80;;;4.60;;
2396;SDS011;1209;48.410;9.054;2024-01-06T01:18:46;5.40;;;4.90;;
2396;SDS011;1209;48.410;9.054;2024-01-06T01:21:11;7.43;;;5.20;;
2396;SDS011;1209;48.410;9.054;2024-01-06T01:23:36;6.80;;;4.80;;
2396;SDS011;1209;48.410;9.054;2024-01-06T01:26:02;6.50;;;4.90;;
2396;SDS011;1209;48.410;9.054;2024-01-06T01:28:27;10.93;;;5.80;;
2396;SDS011;1209;48.410;9.054;2024-01-06T01:30:52;6.60;;;4.07;;
2396;SDS011;1209;48.410;9.054;2024-01-06T01:33:18;6.07;;;4.50;;
2396;SDS011;1209;48.410;9.054;2024-01-06T01:35:43;12.30;;;5.30;;
2396;SDS011;1209;48.410;9.054;2024-01-06T01:38:08;6.00;;;4.70;;
2396;SDS011;1209;48.410;9.054;2024-01-06T01:40:34;5.73;;;4.10;;
2396;SDS011;1209;48.410;9.054;2024-01-06T01:42:59;5.07;;;4.57;;
2396;SDS011;1209;48.410;9.054;2024-01-06T01:45:24;5.43;;;4.10;;
2396;SDS011;1209;48.410;9.054;2024-01-06T01:47:49;3.70;;;3.40;;
2396;SDS011;1209;48.410;9.054;2024-01-06T01:50:15;5.50;;;3.50;;
2396;SDS011;1209;48.410;9.054;2024-01-06T01:52:41;4.77;;;3.60;;
2396;SDS011;1209;48.410;9.054;2024-01-06T01:55:07;3.47;;;3.07;;
2396;SDS011;1209;48.410;9.054;2024-01-06T01:57:33;3.87;;;3.47;;
2396;SDS011;1209;48.410;9.054;2024-01-06T01:59:59;4.80;;;3.50;;
2396;SDS011;1209;48.410;9.054;2024-01-06T02:02:26;6.83;;;3.50;;
2396;SDS011;1209;48.410;9.054;2024-01-06T02:04:53;4.13;;;3.30;;
2396;SDS011;1209;48.410;9.054;2024-01-06T02:07:19;3.47;;;3.17;;
2396;SDS011;1209;48.410;9.054;2024-01-06T02:09:45;6.00;;;3.50;;
2396;SDS011;1209;48.410;9.054;2024-01-06T02:12:10;5.20;;;3.80;;
2396;SDS011;1209;48.410;9.054;2024-01-06T02:14:35;8.13;;;3.80;;
2396;SDS011;1209;48.410;9.054;2024-01-06T02:17:00;5.70;;;3.73;;
2396;SDS011;1209;48.410;9.054;2024-01-06T02:19:26;6.17;;;3.73;;
2396;SDS011;1209;48.410;9.054;2024-01-06T02:21:54;5.93;;;3.40;;
2396;SDS011;1209;48.410;9.054;2024-01-06T02:24:20;3.47;;;2.50;;
2396;SDS011;1209;48.410;9.054;2024-01-06T02:26:46;3.27;;;2.97;;
2396;SDS011;1209;48.410;9.054;2024-01-06T02:29:11;4.97;;;2.80;;
2396;SDS011;1209;48.410;9.054;2024-01-06T02:31:37;3.10;;;2.30;;
2396;SDS011;1209;48.410;9.054;2024-01-06T02:34:02;10.17;;;2.50;;
2396;SDS011;1209;48.410;9.054;2024-01-06T02:36:27;4.00;;;2.97;;
2396;SDS011;1209;48.410;9.054;2024-01-06T02:38:52;4.00;;;3.03;;
2396;SDS011;1209;48.410;9.054;2024-01-06T02:41:18;5.70;;;2.73;;
2396;SDS011;1209;48.410;9.054;2024-01-06T02:43:43;3.03;;;2.73;;
2396;SDS011;1209;48.410;9.054;2024-01-06T02:46:09;3.40;;;3.10;;
2396;SDS011;1209;48.410;9.054;2024-01-06T02:48:34;3.63;;;2.80;;
2396;SDS011;1209;48.410;9.054;2024-01-06T02:50:59;2.67;;;2.47;;
2396;SDS011;1209;48.410;9.054;2024-01-06T02:53:24;3.27;;;2.97;;
2396;SDS011;1209;48.410;9.054;2024-01-06T02:55:50;3.57;;;2.37;;
2396;SDS011;1209;48.410;9.054;2024-01-06T02:58:15;3.33;;;2.67;;
2396;SDS011;1209;48.410;9.054;2024-01-06T03:00:40;4.00;;;2.90;;
2396;SDS011;1209;48.410;9.054;2024-01-06T03:03:05;3.70;;;2.83;;
2396;SDS011;1209;48.410;9.054;2024-01-06T03:05:31;4.70;;;2.73;;
2396;SDS011;1209;48.410;9.054;2024-01-06T03:07:56;3.03;;;2.33;;
2396;SDS011;1209;48.410;9.054;2024-01-06T03:10:22;4.40;;;2.10;;
2396;SDS011;1209;48.410;9.054;2024-01-06T03:12:47;4.13;;;2.30;;
2396;SDS011;1209;48.410;9.054;2024-01-06T03:15:13;4.70;;;2.80;;
2396;SDS011;1209;48.410;9.054;2024-01-06T03:17:38;3.03;;;2.23;;
2396;SDS011;1209;48.410;9.054;2024-01-06T03:20:03;7.30;;;2.30;;
2396;SDS011;1209;48.410;9.054;2024-01-06T03:22:29;3.30;;;2.30;;
2396;SDS011;1209;48.410;9.054;2024-01-06T03:24:55;2.03;;;1.80;;
2396;SDS011;1209;48.410;9.054;2024-01-06T03:27:20;3.80;;;2.10;;
2396;SDS011;1209;48.410;9.054;2024-01-06T03:29:45;4.73;;;2.80;;
2396;SDS011;1209;48.410;9.054;2024-01-06T03:32:11;5.37;;;2.20;;
2396;SDS011;1209;48.410;9.054;2024-01-06T03:34:36;2.63;;;2.30;;
2396;SDS011;1209;48.410;9.054;2024-01-06T03:37:02;3.53;;;2.77;;
2396;SDS011;1209;48.410;9.054;2024-01-06T03:39:27;4.23;;;2.70;;
2396;SDS011;1209;48.410;9.054;2024-01-06T03:41:52;3.43;;;2.33;;
2396;SDS011;1209;48.410;9.054;2024-01-06T03:44:18;8.87;;;3.53;;
2396;SDS011;1209;48.410;9.054;2024-01-06T03:46:43;4.63;;;2.53;;
2396;SDS011;1209;48.410;9.054;2024-01-06T03:49:08;2.70;;;2.50;;
2396;SDS011;1209;48.410;9.054;2024-01-06T03:51:34;2.93;;;2.67;;
2396;SDS011;1209;48.410;9.054;2024-01-06T03:53:59;7.17;;;3.20;;
2396;SDS011;1209;48.410;9.054;2024-01-06T03:56:24;2.77;;;2.10;;
2396;SDS011;1209;48.410;9.054;2024-01-06T03:58:50;3.33;;;2.60;;
2396;SDS011;1209;48.410;9.054;2024-01-06T04:01:15;5.90;;;2.53;;
2396;SDS011;1209;48.410;9.054;2024-01-06T04:03:40;3.50;;;2.97;;
2396;SDS011;1209;48.410;9.054;2024-01-06T04:06:06;7.93;;;2.50;;
2396;SDS011;1209;48.410;9.054;2024-01-06T04:08:31;2.07;;;1.97;;
2396;SDS011;1209;48.410;9.054;2024-01-06T04:10:56;4.93;;;2.60;;
2396;SDS011;1209;48.410;9.054;2024-01-06T04:13:22;2.90;;;2.40;;
2396;SDS011;1209;48.410;9.054;2024-01-06T04:15:49;1.87;;;1.77;;
2396;SDS011;1209;48.410;9.054;2024-01-06T04:18:15;3.23;;;2.20;;
2396;SDS011;1209;48.410;9.054;2024-01-06T04:20:40;5.40;;;1.70;;
2396;SDS011;1209;48.410;9.054;2024-01-06T04:23:05;2.30;;;2.10;;
2396;SDS011;1209;48.410;9.054;2024-01-06T04:25:31;2.40;;;1.90;;
2396;SDS011;1209;48.410;9.054;2024-01-06T04:27:56;2.30;;;1.90;;
2396;SDS011;1209;48.410;9.054;2024-01-06T04:30:21;2.53;;;2.10;;
2396;SDS011;1209;48.410;9.054;2024-01-06T04:32:47;2.70;;;2.10;;
2396;SDS011;1209;48.410;9.054;2024-01-06T04:35:15;2.10;;;1.83;;
2396;SDS011;1209;48.410;9.054;2024-01-06T04:37:40;2.40;;;1.70;;
2396;SDS011;1209;48.410;9.054;2024-01-06T04:40:06;1.63;;;1.53;;
2396;SDS011;1209;48.410;9.054;2024-01-06T04:42:32;1.93;;;1.63;;
2396;SDS011;1209;48.410;9.054;2024-01-06T04:44:58;1.77;;;1.67;;
2396;SDS011;1209;48.410;9.054;2024-01-06T04:47:23;1.90;;;1.70;;
2396;SDS011;1209;48.410;9.054;2024-01-06T04:49:49;5.00;;;1.70;;
2396;SDS011;1209;48.410;9.054;2024-01-06T04:52:15;2.47;;;2.17;;
2396;SDS011;1209;48.410;9.054;2024-01-06T04:54:40;2.03;;;1.37;;
2396;SDS011;1209;48.410;9.054;2024-01-06T04:57:05;2.93;;;1.93;;
2396;SDS011;1209;48.410;9.054;2024-01-06T04:59:30;5.70;;;1.63;;
2396;SDS011;1209;48.410;9.054;2024-01-06T05:01:56;3.67;;;1.63;;
2396;SDS011;1209;48.410;9.054;2024-01-06T05:04:22;1.50;;;1.40;;
2396;SDS011;1209;48.410;9.054;2024-01-06T05:06:47;2.37;;;1.30;;
2396;SDS011;1209;48.410;9.054;2024-01-06T05:09:14;1.90;;;1.80;;
2396;SDS011;1209;48.410;9.054;2024-01-06T05:11:40;1.80;;;1.27;;
2396;SDS011;1209;48.410;9.054;2024-01-06T05:14:05;1.90;;;1.70;;
2396;SDS011;1209;48.410;9.054;2024-01-06T05:16:30;1.77;;;1.50;;
2396;SDS011;1209;48.410;9.054;2024-01-06T05:18:56;1.63;;;1.53;;
2396;SDS011;1209;48.410;9.054;2024-01-06T05:21:21;3.70;;;1.60;;
2396;SDS011;1209;48.410;9.054;2024-01-06T05:23:46;2.63;;;1.60;;
2396;SDS011;1209;48.410;9.054;2024-01-06T05:26:11;3.00;;;1.50;;
2396;SDS011;1209;48.410;9.054;2024-01-06T05:28:38;1.70;;;1.60;;
2396;SDS011;1209;48.410;9.054;2024-01-06T05:31:04;2.33;;;1.67;;
2396;SDS011;1209;48.410;9.054;2024-01-06T05:33:29;2.07;;;1.50;;
2396;SDS011;1209;48.410;9.054;2024-01-06T05:35:54;1.90;;;1.80;;
2396;SDS011;1209;48.410;9.054;2024-01-06T05:38:19;5.23;;;1.50;;
2396;SDS011;1209;48.410;9.054;2024-01-06T05:40:45;5.57;;;1.63;;
2396;SDS011;1209;48.410;9.054;2024-01-06T05:43:10;1.60;;;1.50;;
2396;SDS011;1209;48.410;9.054;2024-01-06T05:45:35;2.33;;;1.87;;
2396;SDS011;1209;48.410;9.054;2024-01-06T05:48:02;5.70;;;1.80;;
2396;SDS011;1209;48.410;9.054;2024-01-06T05:50:28;2.63;;;1.93;;
2396;SDS011;1209;48.410;9.054;2024-01-06T05:52:53;1.70;;;1.37;;
2396;SDS011;1209;48.410;9.054;2024-01-06T05:55:18;1.50;;;1.40;;
2396;SDS011;1209;48.410;9.054;2024-01-06T05:57:44;2.20;;;1.33;;
2396;SDS011;1209;48.410;9.054;2024-01-06T06:00:09;2.87;;;1.60;;
2396;SDS011;1209;48.410;9.054;2024-01-06T06:02:36;1.80;;;1.70;;
2396;SDS011;1209;48.410;9.054;2024-01-06T06:05:01;4.40;;;1.73;;
2396;SDS011;1209;48.410;9.054;2024-01-06T06:07:26;3.47;;;1.87;;
2396;SDS011;1209;48.410;9.054;2024-01-06T06:09:52;1.70;;;1.60;;
2396;SDS011;1209;48.410;9.054;2024-01-06T06:12:18;6.50;;;1.60;;
2396;SDS011;1209;48.410;9.054;2024-01-06T06:14:43;4.00;;;1.37;;
2396;SDS011;1209;48.410;9.054;2024-01-06T06:17:08;1.73;;;1.37;;
2396;SDS011;1209;48.410;9.054;2024-01-06T06:19:34;3.03;;;1.73;;
2396;SDS011;1209;48.410;9.054;2024-01-06T06:21:59;1.90;;;1.50;;
2396;SDS011;1209;48.410;9.054;2024-01-06T06:24:25;1.90;;;1.40;;
2396;SDS011;1209;48.410;9.054;2024-01-06T06:26:50;1.37;;;1.27;;
2396;SDS011;1209;48.410;9.054;2024-01-06T06:29:15;1.60;;;1.50;;
2396;SDS011;1209;48.410;9.054;2024-01-06T06:31:41;3.33;;;2.17;;
2396;SDS011;1209;48.410;9.054;2024-01-06T06:34:08;3.30;;;1.53;;
2396;SDS011;1209;48.410;9.054;2024-01-06T06:36:34;10.60;;;1.90;;
2396;SDS011;1209;48.410;9.054;2024-01-06T06:38:59;2.07;;;1.97;;
2396;SDS011;1209;48.410;9.054;2024-01-06T06:41:25;1.90;;;1.40;;
2396;SDS011;1209;48.410;9.054;2024-01-06T06:43:50;3.00;;;2.00;;
2396;SDS011;1209;48.410;9.054;2024-01-06T06:46:15;1.97;;;1.87;;
2396;SDS011;1209;48.410;9.054;2024-01-06T06:48:41;4.20;;;1.80;;
2396;SDS011;1209;48.410;9.054;2024-01-06T06:51:06;3.97;;;2.67;;
2396;SDS011;1209;48.410;9.054;2024-01-06T06:53:31;3.40;;;2.60;;
2396;SDS011;1209;48.410;9.054;2024-01-06T06:55:57;2.00;;;1.80;;
2396;SDS011;1209;48.410;9.054;2024-01-06T06:58:22;6.53;;;2.03;;
2396;SDS011;1209;48.410;9.054;2024-01-06T07:00:47;1.90;;;1.80;;
2396;SDS011;1209;48.410;9.054;2024-01-06T07:03:13;3.80;;;1.77;;
2396;SDS011;1209;48.410;9.054;2024-01-06T07:05:39;4.43;;;2.30;;
2396;SDS011;1209;48.410;9.054;2024-01-06T07:08:04;1.80;;;1.70;;
2396;SDS011;1209;48.410;9.054;2024-01-06T07:10:29;2.07;;;1.70;;
2396;SDS011;1209;48.410;9.054;2024-01-06T07:12:55;2.67;;;2.10;;
2396;SDS011;1209;48.410;9.054;2024-01-06T07:15:20;2.17;;;1.83;;
2396;SDS011;1209;48.410;9.054;2024-01-06T07:17:45;8.90;;;3.30;;
2396;SDS011;1209;48.410;9.054;2024-01-06T07:20:12;1.50;;;1.40;;
2396;SDS011;1209;48.410;9.054;2024-01-06T07:22:37;3.10;;;1.90;;
2396;SDS011;1209;48.410;9.054;2024-01-06T07:25:03;3.70;;;1.70;;
2396;SDS011;1209;48.410;9.054;2024-01-06T07:27:28;1.63;;;1.50;;
2396;SDS011;1209;48.410;9.054;2024-01-06T07:29:53;3.23;;;1.80;;
2396;SDS011;1209;48.410;9.054;2024-01-06T07:32:20;2.43;;;1.47;;
2396;SDS011;1209;48.410;9.054;2024-01-06T07:34:46;1.67;;;1.57;;
2396;SDS011;1209;48.410;9.054;2024-01-06T07:37:11;1.47;;;1.40;;
2396;SDS011;1209;48.410;9.054;2024-01-06T07:39:37;1.93;;;1.83;;
2396;SDS011;1209;48.410;9.054;2024-01-06T07:42:02;5.03;;;1.60;;
2396;SDS011;1209;48.410;9.054;2024-01-06T07:44:28;1.93;;;1.80;;
2396;SDS011;1209;48.410;9.054;2024-01-06T07:46:53;5.40;;;2.27;;
2396;SDS011;1209;48.410;9.054;2024-01-06T07:49:18;6.23;;;2.20;;
2396;SDS011;1209;48.410;9.054;2024-01-06T07:51:44;4.60;;;2.53;;
2396;SDS011;1209;48.410;9.054;2024-01-06T07:54:09;4.13;;;2.10;;
2396;SDS011;1209;48.410;9.054;2024-01-06T07:56:36;2.70;;;1.87;;
2396;SDS011;1209;48.410;9.054;2024-01-06T07:59:01;2.20;;;1.90;;
2396;SDS011;1209;48.410;9.054;2024-01-06T08:01:27;5.27;;;2.17;;
2396;SDS011;1209;48.410;9.054;2024-01-06T08:03:52;4.50;;;2.60;;
2396;SDS011;1209;48.410;9.054;2024-01-06T08:06:18;7.23;;;3.03;;
2396;SDS011;1209;48.410;9.054;2024-01-06T08:08:43;5.53;;;2.60;;
2396;SDS011;1209;48.410;9.054;2024-01-06T08:11:09;3.10;;;2.63;;
2396;SDS011;1209;48.410;9.054;2024-01-06T08:13:34;8.40;;;2.43;;
2396;SDS011;1209;48.410;9.054;2024-01-06T08:15:59;3.40;;;2.80;;
2396;SDS011;1209;48.410;9.054;2024-01-06T08:18:25;10.30;;;2.97;;
2396;SDS011;1209;48.410;9.054;2024-01-06T08:20:50;3.83;;;2.30;;
2396;SDS011;1209;48.410;9.054;2024-01-06T08:23:15;2.50;;;2.30;;
2396;SDS011;1209;48.410;9.054;2024-01-06T08:25:42;5.40;;;2.30;;
2396;SDS011;1209;48.410;9.054;2024-01-06T08:28:08;3.27;;;2.97;;
2396;SDS011;1209;48.410;9.054;2024-01-06T08:30:33;2.50;;;2.30;;
2396;SDS011;1209;48.410;9.054;2024-01-06T08:32:58;2.50;;;2.10;;
2396;SDS011;1209;48.410;9.054;2024-01-06T08:35:24;8.97;;;3.03;;
2396;SDS011;1209;48.410;9.054;2024-01-06T08:37:50;2.40;;;2.20;;
2396;SDS011;1209;48.410;9.054;2024-01-06T08:40:15;4.23;;;2.37;;
2396;SDS011;1209;48.410;9.054;2024-01-06T08:42:41;2.60;;;2.03;;
2396;SDS011;1209;48.410;9.054;2024-01-06T08:45:06;6.80;;;2.13;;
2396;SDS011;1209;48.410;9.054;2024-01-06T08:47:31;1.77;;;1.67;;
2396;SDS011;1209;48.410;9.054;2024-01-06T08:49:57;1.70;;;1.60;;
2396;SDS011;1209;48.410;9.054;2024-01-06T08:52:22;2.10;;;1.90;;
2396;SDS011;1209;48.410;9.054;2024-01-06T08:54:48;2.70;;;1.83;;
2396;SDS011;1209;48.410;9.054;2024-01-06T08:57:14;2.23;;;1.73;;
2396;SDS011;1209;48.410;9.054;2024-01-06T08:59:40;3.67;;;1.80;;
2396;SDS011;1209;48.410;9.054;2024-01-06T09:02:05;2.87;;;1.70;;
2396;SDS011;1209;48.410;9.054;2024-01-06T09:04:30;3.13;;;2.30;;
2396;SDS011;1209;48.410;9.054;2024-01-06T09:06:55;3.10;;;1.63;;
2396;SDS011;1209;48.410;9.054;2024-01-06T09:09:21;2.87;;;1.97;;
2396;SDS011;1209;48.410;9.054;2024-01-06T09:11:48;2.50;;;1.80;;
2396;SDS011;1209;48.410;9.054;2024-01-06T09:14:13;5.23;;;2.40;;
2396;SDS011;1209;48.410;9.054;2024-01-06T09:16:38;4.17;;;2.37;;
2396;SDS011;1209;48.410;9.054;2024-01-06T09:19:04;1.77;;;1.60;;
2396;SDS011;1209;48.410;9.054;2024-01-06T09:21:29;2.10;;;2.00;;
2396;SDS011;1209;48.410;9.054;2024-01-06T09:23:54;2.17;;;1.97;;
2396;SDS011;1209;48.410;9.054;2024-01-06T09:26:20;5.50;;;2.10;;
2396;SDS011;1209;48.410;9.054;2024-01-06T09:28:45;4.13;;;2.30;;
2396;SDS011;1209;48.410;9.054;2024-01-06T09:31:11;2.67;;;1.60;;
2396;SDS011;1209;48.410;9.054;2024-01-06T09:33:36;1.97;;;1.73;;
2396;SDS011;1209;48.410;9.054;2024-01-06T09:36:02;2.23;;;2.00;;
2396;SDS011;1209;48.410;9.054;2024-01-06T09:38:27;2.30;;;2.10;;
2396;SDS011;1209;48.410;9.054;2024-01-06T09:40:53;1.47;;;1.43;;
2396;SDS011;1209;48.410;9.054;2024-01-06T09:43:20;2.47;;;1.67;;
2396;SDS011;1209;48.410;9.054;2024-01-06T09:45:47;4.00;;;2.10;;
2396;SDS011;1209;48.410;9.054;2024-01-06T09:48:22;1.63;;;1.60;;
2396;SDS011;1209;48.410;9.054;2024-01-06T09:50:52;4.77;;;1.83;;
2396;SDS011;1209;48.410;9.054;2024-01-06T09:53:20;2.70;;;2.50;;
2396;SDS011;1209;48.410;9.054;2024-01-06T09:55:48;2.20;;;2.10;;
2396;SDS011;1209;48.410;9.054;2024-01-06T09:58:17;2.20;;;2.00;;
2396;SDS011;1209;48.410;9.054;2024-01-06T10:00:42;1.90;;;1.80;;
2396;SDS011;1209;48.410;9.054;2024-01-06T10:03:07;2.03;;;1.90;;
2396;SDS011;1209;48.410;9.054;2024-01-06T10:05:33;5.13;;;2.00;;
2396;SDS011;1209;48.410;9.054;2024-01-06T10:07:58;4.30;;;1.80;;
2396;SDS011;1209;48.410;9.054;2024-01-06T10:10:24;3.37;;;1.97;;
2396;SDS011;1209;48.410;9.054;2024-01-06T10:12:49;7.97;;;2.77;;
2396;SDS011;1209;48.410;9.054;2024-01-06T10:15:18;3.03;;;2.27;;
2396;SDS011;1209;48.410;9.054;2024-01-06T10:17:44;4.10;;;1.80;;
2396;SDS011;1209;48.410;9.054;2024-01-06T10:20:11;6.30;;;2.13;;
2396;SDS011;1209;48.410;9.054;2024-01-06T10:22:37;1.60;;;1.50;;
2396;SDS011;1209;48.410;9.054;2024-01-06T10:25:05;4.93;;;2.03;;
2396;SDS011;1209;48.410;9.054;2024-01-06T10:27:35;2.40;;;1.60;;
2396;SDS011;1209;48.410;9.054;2024-01-06T10:30:01;5.73;;;1.93;;
2396;SDS011;1209;48.410;9.054;2024-01-06T10:32:27;4.40;;;1.60;;
2396;SDS011;1209;48.410;9.054;2024-01-06T10:34:54;3.60;;;1.70;;
2396;SDS011;1209;48.410;9.054;2024-01-06T10:37:20;1.73;;;1.63;;
2396;SDS011;1209;48.410;9.054;2024-01-06T10:39:45;8.10;;;2.00;;
2396;SDS011;1209;48.410;9.054;2024-01-06T10:42:11;2.63;;;1.60;;
2396;SDS011;1209;48.410;9.054;2024-01-06T10:44:38;1.80;;;1.00;;
2396;SDS011;1209;48.410;9.054;2024-01-06T10:47:04;1.60;;;1.50;;
2396;SDS011;1209;48.410;9.054;2024-01-06T10:49:31;1.50;;;1.40;;
2396;SDS011;1209;48.410;9.054;2024-01-06T10:51:58;4.40;;;3.20;;
2396;SDS011;1209;48.410;9.054;2024-01-06T10:54:24;1.70;;;1.60;;
2396;SDS011;1209;48.410;9.054;2024-01-06T10:56:49;2.40;;;1.80;;
2396;SDS011;1209;48.410;9.054;2024-01-06T10:59:17;2.17;;;1.80;;
2396;SDS011;1209;48.410;9.054;2024-01-06T11:01:47;1.90;;;1.43;;
2396;SDS011;1209;48.410;9.054;2024-01-06T11:04:14;3.20;;;2.00;;
2396;SDS011;1209;48.410;9.054;2024-01-06T11:06:40;1.53;;;1.00;;
2396;SDS011;1209;48.410;9.054;2024-01-06T11:09:22;1.33;;;1.33;;
2396;SDS011;1209;48.410;9.054;2024-01-06T11:11:52;2.60;;;1.53;;
2396;SDS011;1209;48.410;9.054;2024-01-06T11:14:25;1.57;;;1.47;;
2396;SDS011;1209;48.410;9.054;2024-01-06T11:16:53;3.27;;;1.67;;
2396;SDS011;1209;48.410;9.054;2024-01-06T11:24:52;4.80;;;1.57;;
2396;SDS011;1209;48.410;9.054;2024-01-06T11:27:20;2.30;;;1.40;;
2396;SDS011;1209;48.410;9.054;2024-01-06T11:29:47;1.93;;;1.40;;
2396;SDS011;1209;48.410;9.054;2024-01-06T11:34:51;1.90;;;1.60;;
2396;SDS011;1209;48.410;9.054;2024-01-06T11:39:59;4.50;;;1.83;;
2396;SDS011;1209;48.410;9.054;2024-01-06T11:42:31;1.87;;;1.70;;
2396;SDS011;1209;48.410;9.054;2024-01-06T11:44:57;9.00;;;1.83;;
2396;SDS011;1209;48.410;9.054;2024-01-06T11:47:27;1.60;;;1.50;;
2396;SDS011;1209;48.410;9.054;2024-01-06T11:49:55;4.60;;;2.20;;
2396;SDS011;1209;48.410;9.054;2024-01-06T11:52:21;3.27;;;1.90;;
2396;SDS011;1209;48.410;9.054;2024-01-06T11:54:46;1.60;;;1.50;;
2396;SDS011;1209;48.410;9.054;2024-01-06T11:57:12;3.87;;;2.50;;
2396;SDS011;1209;48.410;9.054;2024-01-06T11:59:37;1.60;;;1.50;;
2396;SDS011;1209;48.410;9.054;2024-01-06T12:02:03;3.40;;;2.40;;
2396;SDS011;1209;48.410;9.054;2024-01-06T12:04:28;1.60;;;1.30;;
2396;SDS011;1209;48.410;9.054;2024-01-06T12:07:04;1.73;;;1.60;;
2396;SDS011;1209;48.410;9.054;2024-01-06T12:09:30;1.97;;;1.87;;
2396;SDS011;1209;48.410;9.054;2024-01-06T12:12:02;4.80;;;1.47;;
2396;SDS011;1209;48.410;9.054;2024-01-06T12:14:31;2.17;;;1.97;;
2396;SDS011;1209;48.410;9.054;2024-01-06T12:16:58;1.30;;;1.30;;
2396;SDS011;1209;48.410;9.054;2024-01-06T12:19:27;7.20;;;1.97;;
2396;SDS011;1209;48.410;9.054;2024-01-06T12:21:54;1.20;;;1.20;;
2396;SDS011;1209;48.410;9.054;2024-01-06T12:24:20;3.10;;;1.37;;
2396;SDS011;1209;48.410;9.054;2024-01-06T12:26:46;2.00;;;1.60;;
2396;SDS011;1209;48.410;9.054;2024-01-06T12:29:12;1.90;;;1.30;;
2396;SDS011;1209;48.410;9.054;2024-01-06T12:31:39;3.37;;;2.23;;
2396;SDS011;1209;48.410;9.054;2024-01-06T12:34:06;3.17;;;2.47;;
2396;SDS011;1209;48.410;9.054;2024-01-06T12:36:34;5.30;;;2.30;;
2396;SDS011;1209;48.410;9.054;2024-01-06T12:39:00;1.70;;;1.60;;
2396;SDS011;1209;48.410;9.054;2024-01-06T12:41:27;2.07;;;1.87;;
2396;SDS011;1209;48.410;9.054;2024-01-06T12:43:53;2.03;;;1.57;;
2396;SDS011;1209;48.410;9.054;2024-01-06T12:46:18;3.53;;;1.80;;
2396;SDS011;1209;48.410;9.054;2024-01-06T12:48:43;1.90;;;1.53;;
2396;SDS011;1209;48.410;9.054;2024-01-06T12:51:09;2.40;;;1.63;;
2396;SDS011;1209;48.410;9.054;2024-01-06T12:53:34;1.93;;;1.83;;
2396;SDS011;1209;48.410;9.054;2024-01-06T12:56:00;1.77;;;1.50;;
2396;SDS011;1209;48.410;9.054;2024-01-06T12:58:25;1.87;;;1.30;;
2396;SDS011;1209;48.410;9.054;2024-01-06T13:00:50;2.13;;;1.73;;
2396;SDS011;1209;48.410;9.054;2024-01-06T13:03:15;2.00;;;1.57;;
2396;SDS011;1209;48.410;9.054;2024-01-06T13:05:41;3.40;;;2.20;;
2396;SDS011;1209;48.410;9.054;2024-01-06T13:08:07;2.23;;;1.90;;
2396;SDS011;1209;48.410;9.054;2024-01-06T13:10:32;1.87;;;1.50;;
2396;SDS011;1209;48.410;9.054;2024-01-06T13:12:59;2.13;;;1.30;;
2396;SDS011;1209;48.410;9.054;2024-01-06T13:15:24;1.50;;;1.40;;
2396;SDS011;1209;48.410;9.054;2024-01-06T13:17:50;1.57;;;1.47;;
2396;SDS011;1209;48.410;9.054;2024-01-06T13:20:16;1.50;;;1.50;;
2396;SDS011;1209;48.410;9.054;2024-01-06T13:22:42;1.80;;;1.70;;
2396;SDS011;1209;48.410;9.054;2024-01-06T13:25:07;4.30;;;1.80;;
2396;SDS011;1209;48.410;9.054;2024-01-06T13:27:33;2.63;;;1.70;;
2396;SDS011;1209;48.410;9.054;2024-01-06T13:29:59;1.40;;;1.40;;
2396;SDS011;1209;48.410;9.054;2024-01-06T13:32:24;6.30;;;1.93;;
2396;SDS011;1209;48.410;9.054;2024-01-06T13:34:52;1.67;;;1.57;;
2396;SDS011;1209;48.410;9.054;2024-01-06T13:37:19;2.43;;;1.40;;
2396;SDS011;1209;48.410;9.054;2024-01-06T13:39:47;1.60;;;1.50;;
2396;SDS011;1209;48.410;9.054;2024-01-06T13:42:12;1.00;;;1.00;;
2396;SDS011;1209;48.410;9.054;2024-01-06T13:44:38;1.20;;;1.20;;
2396;SDS011;1209;48.410;9.054;2024-01-06T13:47:03;3.40;;;2.13;;
2396;SDS011;1209;48.410;9.054;2024-01-06T13:49:29;1.00;;;1.00;;
2396;SDS011;1209;48.410;9.054;2024-01-06T13:51:54;2.23;;;2.13;;
2396;SDS011;1209;48.410;9.054;2024-01-06T13:54:19;5.47;;;3.13;;
2396;SDS011;1209;48.410;9.054;2024-01-06T13:56:45;3.50;;;2.13;;
2396;SDS011;1209;48.410;9.054;2024-01-06T13:59:11;1.37;;;1.27;;
2396;SDS011;1209;48.410;9.054;2024-01-06T14:01:36;1.97;;;1.87;;
2396;SDS011;1209;48.410;9.054;2024-01-06T14:04:02;3.17;;;2.27;;
2396;SDS011;1209;48.410;9.054;2024-01-06T14:06:30;1.43;;;1.43;;
2396;SDS011;1209;48.410;9.054;2024-01-06T14:08:59;1.27;;;1.27;;
2396;SDS011;1209;48.410;9.054;2024-01-06T14:11:28;2.03;;;1.83;;
2396;SDS011;1209;48.410;9.054;2024-01-06T14:13:56;2.73;;;1.57;;
2396;SDS011;1209;48.410;9.054;2024-01-06T14:16:22;1.40;;;1.30;;
2396;SDS011;1209;48.410;9.054;2024-01-06T14:18:48;2.10;;;1.00;;
2396;SDS011;1209;48.410;9.054;2024-01-06T14:21:13;1.10;;;1.10;;
2396;SDS011;1209;48.410;9.054;2024-01-06T14:23:44;1.37;;;1.37;;
2396;SDS011;1209;48.410;9.054;2024-01-06T14:26:10;0.90;;;0.90;;
2396;SDS011;1209;48.410;9.054;2024-01-06T14:28:35;0.80;;;0.80;;
2396;SDS011;1209;48.410;9.054;2024-01-06T14:31:01;1.40;;;1.30;;
2396;SDS011;1209;48.410;9.054;2024-01-06T14:33:26;1.33;;;1.23;;
2396;SDS011;1209;48.410;9.054;2024-01-06T14:35:52;1.00;;;0.90;;
2396;SDS011;1209;48.410;9.054;2024-01-06T14:38:18;1.50;;;1.00;;
2396;SDS011;1209;48.410;9.054;2024-01-06T14:40:43;0.90;;;0.90;;
2396;SDS011;1209;48.410;9.054;2024-01-06T14:43:09;1.17;;;1.17;;
2396;SDS011;1209;48.410;9.054;2024-01-06T14:45:35;1.00;;;1.00;;
2396;SDS011;1209;48.410;9.054;2024-01-06T14:48:00;7.53;;;2.50;;
2396;SDS011;1209;48.410;9.054;2024-01-06T14:50:25;2.77;;;2.57;;
2396;SDS011;1209;48.410;9.054;2024-01-06T14:52:51;4.40;;;2.93;;
2396;SDS011;1209;48.410;9.054;2024-01-06T14:55:16;1.40;;;1.40;;
2396;SDS011;1209;48.410;9.054;2024-01-06T14:57:42;6.90;;;3.93;;
2396;SDS011;1209;48.410;9.054;2024-01-06T15:00:07;9.10;;;5.17;;
2396;SDS011;1209;48.410;9.054;2024-01-06T15:02:35;10.10;;;5.40;;
2396;SDS011;1209;48.410;9.054;2024-01-06T15:05:01;7.03;;;3.70;;
2396;SDS011;1209;48.410;9.054;2024-01-06T15:07:26;8.87;;;4.33;;
2396;SDS011;1209;48.410;9.054;2024-01-06T15:09:51;7.90;;;4.00;;
2396;SDS011;1209;48.410;9.054;2024-01-06T15:12:17;2.37;;;1.87;;
2396;SDS011;1209;48.410;9.054;2024-01-06T15:14:42;2.00;;;1.60;;
2396;SDS011;1209;48.410;9.054;2024-01-06T15:17:07;1.70;;;1.20;;